Terminal Aerodrome Forecast
Issued by NWS

Home | Current Version | Previous Version | Text Only | Print | Product List | Glossary On
Versions: 1 2 3 4 5 6 7 8 9 10 11 12
000
FTUS43 KJKL 280300 AAB
TAFSME
TAF AMD
KSME 280301Z 2803/2824 20005KT P6SM VCSH OVC025
     FM280700 VRB04KT 3SM -RA BR OVC010
     FM281200 VRB03KT 3SM -RA BR BKN007 OVC015=

USA.gov is the U.S. government's official web portal to all federal, state and local government web resources and services.